sensor_id;sensor_type;location;lat;lon;timestamp;pressure;altitude;pressure_sealevel;temperature;humidity
56518;BME280;42419;48.760;2.322;2023-02-11T00:00:05;103039.56;;;21.99;32.40
56518;BME280;42419;48.760;2.322;2023-02-11T00:02:32;103011.13;;;21.81;32.49
56518;BME280;42419;48.760;2.322;2023-02-11T00:04:57;103036.91;;;21.96;32.75
56518;BME280;42419;48.760;2.322;2023-02-11T00:07:23;103014.66;;;21.83;32.53
56518;BME280;42419;48.760;2.322;2023-02-11T00:09:48;103034.25;;;21.93;32.48
56518;BME280;42419;48.760;2.322;2023-02-11T00:12:14;103041.38;;;21.97;32.33
56518;BME280;42419;48.760;2.322;2023-02-11T00:14:40;103029.78;;;21.95;32.19
56518;BME280;42419;48.760;2.322;2023-02-11T00:17:05;103022.59;;;21.95;32.25
56518;BME280;42419;48.760;2.322;2023-02-11T00:19:31;103018.22;;;21.90;32.40
56518;BME280;42419;48.760;2.322;2023-02-11T00:21:58;103013.75;;;21.90;32.07
56518;BME280;42419;48.760;2.322;2023-02-11T00:24:24;103018.22;;;21.88;32.29
56518;BME280;42419;48.760;2.322;2023-02-11T00:26:49;103007.50;;;21.82;32.16
56518;BME280;42419;48.760;2.322;2023-02-11T00:29:15;103027.16;;;21.90;32.06
56518;BME280;42419;48.760;2.322;2023-02-11T00:31:40;103013.75;;;21.87;32.13
56518;BME280;42419;48.760;2.322;2023-02-11T00:34:05;103011.91;;;21.91;32.03
56518;BME280;42419;48.760;2.322;2023-02-11T00:36:31;103014.63;;;21.89;32.05
56518;BME280;42419;48.760;2.322;2023-02-11T00:38:57;103012.88;;;21.85;31.87
56518;BME280;42419;48.760;2.322;2023-02-11T00:41:23;103014.59;;;21.91;31.89
56518;BME280;42419;48.760;2.322;2023-02-11T00:43:49;103017.28;;;21.91;31.93
56518;BME280;42419;48.760;2.322;2023-02-11T00:46:15;103011.06;;;21.84;31.99
56518;BME280;42419;48.760;2.322;2023-02-11T00:48:41;103013.75;;;21.90;31.87
56518;BME280;42419;48.760;2.322;2023-02-11T00:51:07;103017.28;;;21.91;31.75
56518;BME280;42419;48.760;2.322;2023-02-11T00:53:33;103011.09;;;21.86;31.87
56518;BME280;42419;48.760;2.322;2023-02-11T00:55:58;103007.50;;;21.87;31.95
56518;BME280;42419;48.760;2.322;2023-02-11T00:58:25;102995.03;;;21.81;32.28
56518;BME280;42419;48.760;2.322;2023-02-11T01:00:51;103008.38;;;21.89;31.75
56518;BME280;42419;48.760;2.322;2023-02-11T01:03:17;102996.78;;;21.85;31.89
56518;BME280;42419;48.760;2.322;2023-02-11T01:05:42;102993.19;;;21.83;31.64
56518;BME280;42419;48.760;2.322;2023-02-11T01:08:08;103005.69;;;21.87;31.62
56518;BME280;42419;48.760;2.322;2023-02-11T01:10:33;103006.59;;;21.88;31.64
56518;BME280;42419;48.760;2.322;2023-02-11T01:12:58;102994.09;;;21.84;31.84
56518;BME280;42419;48.760;2.322;2023-02-11T01:15:25;102989.66;;;21.80;31.69
56518;BME280;42419;48.760;2.322;2023-02-11T01:17:51;102982.53;;;21.79;31.60
56518;BME280;42419;48.760;2.322;2023-02-11T01:20:20;102979.84;;;21.79;31.65
56518;BME280;42419;48.760;2.322;2023-02-11T01:22:46;102993.19;;;21.86;31.56
56518;BME280;42419;48.760;2.322;2023-02-11T01:25:12;102988.72;;;21.84;31.53
56518;BME280;42419;48.760;2.322;2023-02-11T01:27:37;102987.94;;;21.77;31.36
56518;BME280;42419;48.760;2.322;2023-02-11T01:30:04;102999.44;;;21.87;31.42
56518;BME280;42419;48.760;2.322;2023-02-11T01:32:30;102990.50;;;21.86;31.46
56518;BME280;42419;48.760;2.322;2023-02-11T01:34:56;102961.22;;;21.67;31.46
56518;BME280;42419;48.760;2.322;2023-02-11T01:37:21;102958.53;;;21.67;31.31
56518;BME280;42419;48.760;2.322;2023-02-11T01:39:47;102979.84;;;21.80;31.26
56518;BME280;42419;48.760;2.322;2023-02-11T01:42:17;102944.25;;;21.66;31.33
56518;BME280;42419;48.760;2.322;2023-02-11T01:44:43;102942.44;;;21.65;31.38
56518;BME280;42419;48.760;2.322;2023-02-11T01:47:09;102954.88;;;21.74;31.49
56518;BME280;42419;48.760;2.322;2023-02-11T01:49:56;102971.78;;;21.80;31.26
56518;BME280;42419;48.760;2.322;2023-02-11T01:52:28;102975.38;;;21.81;31.37
56518;BME280;42419;48.760;2.322;2023-02-11T01:54:59;102945.13;;;21.65;31.33
56518;BME280;42419;48.760;2.322;2023-02-11T01:57:47;102958.50;;;21.71;31.46
56518;BME280;42419;48.760;2.322;2023-02-11T02:00:37;102980.69;;;21.84;31.28
56518;BME280;42419;48.760;2.322;2023-02-11T02:03:09;102957.59;;;21.71;31.28
56518;BME280;42419;48.760;2.322;2023-02-11T02:10:58;102971.75;;;21.83;31.20
56518;BME280;42419;48.760;2.322;2023-02-11T02:13:26;102968.16;;;21.83;31.20
56518;BME280;42419;48.760;2.322;2023-02-11T02:15:57;102945.03;;;21.74;31.02
56518;BME280;42419;48.760;2.322;2023-02-11T02:27:33;102960.16;;;21.81;31.17
56518;BME280;42419;48.760;2.322;2023-02-11T02:33:05;102961.06;;;21.80;31.01
56518;BME280;42419;48.760;2.322;2023-02-11T02:35:48;102943.28;;;21.72;31.09
56518;BME280;42419;48.760;2.322;2023-02-11T02:38:37;102952.13;;;21.80;31.15
56518;BME280;42419;48.760;2.322;2023-02-11T02:41:23;102920.09;;;21.66;31.04
56518;BME280;42419;48.760;2.322;2023-02-11T02:43:51;102936.97;;;21.76;31.10
56518;BME280;42419;48.760;2.322;2023-02-11T02:46:21;102941.41;;;21.80;31.04
56518;BME280;42419;48.760;2.322;2023-02-11T02:48:47;102940.50;;;21.81;30.89
56518;BME280;42419;48.760;2.322;2023-02-11T02:57:28;102938.72;;;21.81;30.89
56518;BME280;42419;48.760;2.322;2023-02-11T03:02:57;102927.16;;;21.73;30.99
56518;BME280;42419;48.760;2.322;2023-02-11T03:05:32;102923.63;;;21.71;30.92
56518;BME280;42419;48.760;2.322;2023-02-11T03:08:06;102947.59;;;21.83;30.89
56518;BME280;42419;48.760;2.322;2023-02-11T03:10:46;102928.88;;;21.80;30.88
56518;BME280;42419;48.760;2.322;2023-02-11T03:13:14;102923.53;;;21.80;30.79
56518;BME280;42419;48.760;2.322;2023-02-11T03:15:45;102927.94;;;21.84;30.79
56518;BME280;42419;48.760;2.322;2023-02-11T03:18:16;102920.91;;;21.74;30.85
56518;BME280;42419;48.760;2.322;2023-02-11T03:20:44;102934.19;;;21.86;30.80
56518;BME280;42419;48.760;2.322;2023-02-11T03:23:32;102940.44;;;21.87;30.67
56518;BME280;42419;48.760;2.322;2023-02-11T03:26:24;102940.44;;;21.85;30.61
56518;BME280;42419;48.760;2.322;2023-02-11T03:29:16;102916.44;;;21.73;30.54
56518;BME280;42419;48.760;2.322;2023-02-11T03:31:53;102904.91;;;21.68;30.51
56518;BME280;42419;48.760;2.322;2023-02-11T03:34:29;102930.63;;;21.84;30.66
56518;BME280;42419;48.760;2.322;2023-02-11T03:37:12;102924.38;;;21.84;30.56
56518;BME280;42419;48.760;2.322;2023-02-11T03:39:47;102920.78;;;21.83;30.69
56518;BME280;42419;48.760;2.322;2023-02-11T03:42:15;102904.84;;;21.71;30.53
56518;BME280;42419;48.760;2.322;2023-02-11T03:44:51;102883.56;;;21.58;30.72
56518;BME280;42419;48.760;2.322;2023-02-11T03:47:24;102918.13;;;21.83;30.60
56518;BME280;42419;48.760;2.322;2023-02-11T03:49:52;102918.16;;;21.82;30.40
56518;BME280;42419;48.760;2.322;2023-02-11T03:52:20;102902.13;;;21.74;30.63
56518;BME280;42419;48.760;2.322;2023-02-11T03:54:50;102904.81;;;21.74;30.30
56518;BME280;42419;48.760;2.322;2023-02-11T03:57:17;102919.94;;;21.81;30.30
56518;BME280;42419;48.760;2.322;2023-02-11T03:59:54;102930.66;;;21.86;30.60
56518;BME280;42419;48.760;2.322;2023-02-11T04:02:22;102924.34;;;21.85;30.59
56518;BME280;42419;48.760;2.322;2023-02-11T04:04:49;102927.97;;;21.86;30.47
56518;BME280;42419;48.760;2.322;2023-02-11T04:07:14;102869.34;;;21.52;30.58
56518;BME280;42419;48.760;2.322;2023-02-11T04:09:40;102925.28;;;21.86;30.52
56518;BME280;42419;48.760;2.322;2023-02-11T04:12:05;102914.63;;;21.77;30.29
56518;BME280;42419;48.760;2.322;2023-02-11T04:14:31;102936.00;;;21.86;30.45
56518;BME280;42419;48.760;2.322;2023-02-11T04:16:56;102909.34;;;21.69;30.46
56518;BME280;42419;48.760;2.322;2023-02-11T04:19:22;102912.91;;;21.73;30.39
56518;BME280;42419;48.760;2.322;2023-02-11T04:21:47;102887.09;;;21.61;30.40
56518;BME280;42419;48.760;2.322;2023-02-11T04:24:12;102926.19;;;21.80;30.82
56518;BME280;42419;48.760;2.322;2023-02-11T04:26:38;102944.91;;;21.86;30.40
56518;BME280;42419;48.760;2.322;2023-02-11T04:29:03;102944.03;;;21.84;30.02
56518;BME280;42419;48.760;2.322;2023-02-11T04:31:28;102929.84;;;21.76;30.36
56518;BME280;42419;48.760;2.322;2023-02-11T04:33:54;102906.75;;;21.62;30.22
56518;BME280;42419;48.760;2.322;2023-02-11T04:36:20;102912.06;;;21.68;30.33
56518;BME280;42419;48.760;2.322;2023-02-11T04:38:45;102934.25;;;21.80;30.28
56518;BME280;42419;48.760;2.322;2023-02-11T04:41:10;102941.34;;;21.84;30.17
56518;BME280;42419;48.760;2.322;2023-02-11T04:43:36;102944.06;;;21.86;30.23
56518;BME280;42419;48.760;2.322;2023-02-11T04:46:01;102934.28;;;21.77;30.04
56518;BME280;42419;48.760;2.322;2023-02-11T04:48:26;102947.59;;;21.86;30.20
56518;BME280;42419;48.760;2.322;2023-02-11T04:50:52;102930.69;;;21.78;30.12
56518;BME280;42419;48.760;2.322;2023-02-11T04:53:17;102953.84;;;21.85;30.17
56518;BME280;42419;48.760;2.322;2023-02-11T04:55:42;102942.34;;;21.76;30.13
56518;BME280;42419;48.760;2.322;2023-02-11T04:58:08;102930.72;;;21.75;30.04
56518;BME280;42419;48.760;2.322;2023-02-11T05:00:33;102915.59;;;21.71;30.06
56518;BME280;42419;48.760;2.322;2023-02-11T05:02:59;102930.66;;;21.81;30.11
56518;BME280;42419;48.760;2.322;2023-02-11T05:05:24;102917.31;;;21.74;30.17
56518;BME280;42419;48.760;2.322;2023-02-11T05:07:49;102933.34;;;21.86;29.94
56518;BME280;42419;48.760;2.322;2023-02-11T05:10:18;102932.41;;;21.85;30.03
56518;BME280;42419;48.760;2.322;2023-02-11T05:12:43;102929.72;;;21.85;29.99
56518;BME280;42419;48.760;2.322;2023-02-11T05:15:08;102902.16;;;21.73;29.98
56518;BME280;42419;48.760;2.322;2023-02-11T05:17:34;102914.63;;;21.77;29.85
56518;BME280;42419;48.760;2.322;2023-02-11T05:19:59;102894.13;;;21.71;29.88
56518;BME280;42419;48.760;2.322;2023-02-11T05:22:24;102925.28;;;21.86;29.95
56518;BME280;42419;48.760;2.322;2023-02-11T05:24:50;102895.94;;;21.71;30.29
56518;BME280;42419;48.760;2.322;2023-02-11T05:27:15;102927.03;;;21.85;30.11
56518;BME280;42419;48.760;2.322;2023-02-11T05:29:40;102917.28;;;21.78;30.04
56518;BME280;42419;48.760;2.322;2023-02-11T05:32:06;102911.91;;;21.78;29.78
56518;BME280;42419;48.760;2.322;2023-02-11T05:34:33;102863.94;;;21.56;29.88
56518;BME280;42419;48.760;2.322;2023-02-11T05:36:59;102895.88;;;21.74;29.96
56518;BME280;42419;48.760;2.322;2023-02-11T05:39:24;102917.22;;;21.83;29.80
56518;BME280;42419;48.760;2.322;2023-02-11T05:41:49;102901.22;;;21.77;29.81
56518;BME280;42419;48.760;2.322;2023-02-11T05:44:15;102887.00;;;21.70;29.98
56518;BME280;42419;48.760;2.322;2023-02-11T05:46:40;102918.09;;;21.85;29.87
56518;BME280;42419;48.760;2.322;2023-02-11T05:49:05;102863.91;;;21.57;29.84
56518;BME280;42419;48.760;2.322;2023-02-11T05:51:31;102923.47;;;21.86;29.80
56518;BME280;42419;48.760;2.322;2023-02-11T05:53:56;102918.09;;;21.85;29.79
56518;BME280;42419;48.760;2.322;2023-02-11T05:56:21;102908.38;;;21.75;29.80
56518;BME280;42419;48.760;2.322;2023-02-11T05:58:47;102927.03;;;21.85;29.74
56518;BME280;42419;48.760;2.322;2023-02-11T06:01:12;102914.53;;;21.83;29.77
56518;BME280;42419;48.760;2.322;2023-02-11T06:03:37;102855.94;;;21.51;29.65
56518;BME280;42419;48.760;2.322;2023-02-11T06:06:03;102859.50;;;21.53;29.71
56518;BME280;42419;48.760;2.322;2023-02-11T06:08:28;102916.31;;;21.84;29.63
56518;BME280;42419;48.760;2.322;2023-02-11T06:10:54;102909.19;;;21.83;29.69
56518;BME280;42419;48.760;2.322;2023-02-11T06:13:19;102909.22;;;21.81;29.68
56518;BME280;42419;48.760;2.322;2023-02-11T06:16:03;102919.91;;;21.84;29.65
56518;BME280;42419;48.760;2.322;2023-02-11T06:18:28;102917.22;;;21.84;29.59
56518;BME280;42419;48.760;2.322;2023-02-11T06:20:54;102914.53;;;21.84;29.60
56518;BME280;42419;48.760;2.322;2023-02-11T06:23:19;102904.69;;;21.85;29.60
56518;BME280;42419;48.760;2.322;2023-02-11T06:25:45;102871.84;;;21.66;29.48
56518;BME280;42419;48.760;2.322;2023-02-11T06:28:10;102912.78;;;21.82;29.50
56518;BME280;42419;48.760;2.322;2023-02-11T06:30:36;102889.66;;;21.70;29.59
56518;BME280;42419;48.760;2.322;2023-02-11T06:33:02;102874.63;;;21.57;29.49
56518;BME280;42419;48.760;2.322;2023-02-11T06:35:28;102895.03;;;21.72;29.23
56518;BME280;42419;48.760;2.322;2023-02-11T06:37:53;102921.69;;;21.84;29.87
56518;BME280;42419;48.760;2.322;2023-02-11T06:40:19;102918.16;;;21.80;29.47
56518;BME280;42419;48.760;2.322;2023-02-11T06:42:44;102935.97;;;21.84;29.31
56518;BME280;42419;48.760;2.322;2023-02-11T06:45:10;102928.03;;;21.77;29.44
56518;BME280;42419;48.760;2.322;2023-02-11T06:47:38;102896.09;;;21.59;29.43
56518;BME280;42419;48.760;2.322;2023-02-11T06:50:05;102944.91;;;21.86;29.37
56518;BME280;42419;48.760;2.322;2023-02-11T06:52:31;102947.59;;;21.88;29.29
56518;BME280;42419;48.760;2.322;2023-02-11T06:54:57;102935.97;;;21.87;29.45
56518;BME280;42419;48.760;2.322;2023-02-11T06:57:22;102940.44;;;21.88;29.42
56518;BME280;42419;48.760;2.322;2023-02-11T06:59:47;102928.91;;;21.79;29.45
56518;BME280;42419;48.760;2.322;2023-02-11T07:02:13;102921.78;;;21.76;29.52
56518;BME280;42419;48.760;2.322;2023-02-11T07:04:38;102943.06;;;21.91;29.38
56518;BME280;42419;48.760;2.322;2023-02-11T07:07:03;102955.56;;;21.94;29.30
56518;BME280;42419;48.760;2.322;2023-02-11T07:09:29;102910.22;;;21.71;29.53
56518;BME280;42419;48.760;2.322;2023-02-11T07:11:54;102967.16;;;21.96;29.16
56518;BME280;42419;48.760;2.322;2023-02-11T07:14:19;102964.53;;;21.93;29.48
56518;BME280;42419;48.760;2.322;2023-02-11T07:16:45;102895.19;;;21.58;29.43
56518;BME280;42419;48.760;2.322;2023-02-11T07:19:10;102973.34;;;22.03;29.44
56518;BME280;42419;48.760;2.322;2023-02-11T07:21:36;102980.50;;;22.04;29.67
56518;BME280;42419;48.760;2.322;2023-02-11T07:24:05;102971.56;;;22.02;29.75
56518;BME280;42419;48.760;2.322;2023-02-11T07:26:31;102972.41;;;22.05;29.71
56518;BME280;42419;48.760;2.322;2023-02-11T07:28:56;102947.59;;;21.88;29.56
56518;BME280;42419;48.760;2.322;2023-02-11T07:31:24;102983.13;;;22.08;29.53
56518;BME280;42419;48.760;2.322;2023-02-11T07:33:52;102978.72;;;22.01;28.96
56518;BME280;42419;48.760;2.322;2023-02-11T07:36:18;102984.03;;;22.06;29.51
56518;BME280;42419;48.760;2.322;2023-02-11T07:38:43;102982.25;;;22.08;29.63
56518;BME280;42419;48.760;2.322;2023-02-11T07:41:11;102984.88;;;22.12;29.47
56518;BME280;42419;48.760;2.322;2023-02-11T07:43:38;102957.34;;;21.95;29.61
56518;BME280;42419;48.760;2.322;2023-02-11T07:46:06;102884.53;;;21.52;29.46
56518;BME280;42419;48.760;2.322;2023-02-11T07:48:32;102842.78;;;21.31;29.33
56518;BME280;42419;48.760;2.322;2023-02-11T07:51:13;102975.88;;;22.15;29.51
56518;BME280;42419;48.760;2.322;2023-02-11T07:53:39;102927.94;;;21.84;29.49
56518;BME280;42419;48.760;2.322;2023-02-11T07:56:06;102905.75;;;21.72;29.57
56518;BME280;42419;48.760;2.322;2023-02-11T07:58:32;102984.75;;;22.18;29.57
56518;BME280;42419;48.760;2.322;2023-02-11T08:01:05;102980.28;;;22.19;29.40
56518;BME280;42419;48.760;2.322;2023-02-11T08:03:32;102985.66;;;22.20;29.38
56518;BME280;42419;48.760;2.322;2023-02-11T08:05:57;102984.75;;;22.21;29.15
56518;BME280;42419;48.760;2.322;2023-02-11T08:08:26;102978.44;;;22.22;29.65
56518;BME280;42419;48.760;2.322;2023-02-11T08:10:51;102983.81;;;22.25;29.63
56518;BME280;42419;48.760;2.322;2023-02-11T08:13:17;102930.47;;;22.00;29.70
56518;BME280;42419;48.760;2.322;2023-02-11T08:15:42;102969.53;;;22.22;29.65
56518;BME280;42419;48.760;2.322;2023-02-11T08:18:08;102981.97;;;22.29;29.59
56518;BME280;42419;48.760;2.322;2023-02-11T08:20:33;102986.31;;;22.36;29.83
56518;BME280;42419;48.760;2.322;2023-02-11T08:22:58;102983.69;;;22.33;29.80
56518;BME280;42419;48.760;2.322;2023-02-11T08:25:24;102992.38;;;22.53;30.00
56518;BME280;42419;48.760;2.322;2023-02-11T08:27:49;102981.56;;;22.61;29.72
56518;BME280;42419;48.760;2.322;2023-02-11T08:30:15;102977.69;;;22.80;29.68
56518;BME280;42419;48.760;2.322;2023-02-11T08:32:40;102988.03;;;23.03;29.82
56518;BME280;42419;48.760;2.322;2023-02-11T08:35:06;102987.69;;;23.25;30.29
56518;BME280;42419;48.760;2.322;2023-02-11T08:37:35;102941.91;;;23.33;31.12
56518;BME280;42419;48.760;2.322;2023-02-11T08:40:00;102952.06;;;23.63;30.75
56518;BME280;42419;48.760;2.322;2023-02-11T08:42:28;102985.19;;;24.11;30.33
56518;BME280;42419;48.760;2.322;2023-02-11T08:44:54;102985.63;;;24.33;30.12
56518;BME280;42419;48.760;2.322;2023-02-11T08:47:19;102978.94;;;24.54;30.01
56518;BME280;42419;48.760;2.322;2023-02-11T08:49:45;102989.94;;;24.82;29.60
56518;BME280;42419;48.760;2.322;2023-02-11T08:52:10;102984.09;;;25.00;29.80
56518;BME280;42419;48.760;2.322;2023-02-11T08:54:36;102985.44;;;25.21;29.24
56518;BME280;42419;48.760;2.322;2023-02-11T08:57:01;102987.66;;;25.39;29.00
56518;BME280;42419;48.760;2.322;2023-02-11T08:59:27;102982.56;;;25.61;28.64
56518;BME280;42419;48.760;2.322;2023-02-11T09:01:53;102979.59;;;25.70;28.51
56518;BME280;42419;48.760;2.322;2023-02-11T09:04:18;102979.94;;;25.90;28.14
56518;BME280;42419;48.760;2.322;2023-02-11T09:06:44;103002.59;;;26.15;27.74
56518;BME280;42419;48.760;2.322;2023-02-11T09:09:11;102992.81;;;26.11;27.14
56518;BME280;42419;48.760;2.322;2023-02-11T09:11:38;103008.13;;;26.11;26.92
56518;BME280;42419;48.760;2.322;2023-02-11T09:14:04;103009.47;;;25.96;26.33
56518;BME280;42419;48.760;2.322;2023-02-11T09:16:32;103011.78;;;25.79;26.27
56518;BME280;42419;48.760;2.322;2023-02-11T09:18:59;103005.88;;;25.62;26.46
56518;BME280;42419;48.760;2.322;2023-02-11T09:21:25;103002.72;;;25.46;26.24
56518;BME280;42419;48.760;2.322;2023-02-11T09:23:51;102982.66;;;25.22;26.57
56518;BME280;42419;48.760;2.322;2023-02-11T09:26:19;102945.66;;;24.92;26.47
56518;BME280;42419;48.760;2.322;2023-02-11T09:28:45;102953.56;;;24.99;26.95
56518;BME280;42419;48.760;2.322;2023-02-11T09:31:16;102973.69;;;25.22;27.35
56518;BME280;42419;48.760;2.322;2023-02-11T09:33:44;103006.44;;;25.42;27.65
56518;BME280;42419;48.760;2.322;2023-02-11T09:36:16;103000.84;;;25.49;27.14
56518;BME280;42419;48.760;2.322;2023-02-11T09:38:42;102996.28;;;25.52;27.04
56518;BME280;42419;48.760;2.322;2023-02-11T09:43:59;102993.09;;;25.70;26.69
56518;BME280;42419;48.760;2.322;2023-02-11T09:46:33;103010.31;;;25.98;26.38
56518;BME280;42419;48.760;2.322;2023-02-11T09:49:00;103002.53;;;26.18;26.65
56518;BME280;42419;48.760;2.322;2023-02-11T09:54:34;103007.06;;;26.47;23.84
56518;BME280;42419;48.760;2.322;2023-02-11T09:57:00;102999.47;;;26.32;23.62
56518;BME280;42419;48.760;2.322;2023-02-11T09:59:26;102995.72;;;26.36;24.27
56518;BME280;42419;48.760;2.322;2023-02-11T10:02:01;103013.97;;;26.57;23.72
56518;BME280;42419;48.760;2.322;2023-02-11T10:07:50;103009.25;;;26.93;23.96
56518;BME280;42419;48.760;2.322;2023-02-11T10:20:36;103009.91;;;27.80;23.50
56518;BME280;42419;48.760;2.322;2023-02-11T10:23:29;102949.28;;;27.59;23.12
56518;BME280;42419;48.760;2.322;2023-02-11T10:25:57;103016.06;;;28.08;23.41
56518;BME280;42419;48.760;2.322;2023-02-11T10:28:28;102997.81;;;28.14;22.82
56518;BME280;42419;48.760;2.322;2023-02-11T10:31:10;103003.72;;;28.25;22.42
56518;BME280;42419;48.760;2.322;2023-02-11T10:36:10;103008.59;;;28.38;22.54
56518;BME280;42419;48.760;2.322;2023-02-11T10:38:35;103011.13;;;28.43;22.88
56518;BME280;42419;48.760;2.322;2023-02-11T10:41:05;103012.91;;;28.44;22.54
56518;BME280;42419;48.760;2.322;2023-02-11T10:43:31;102970.03;;;28.32;22.95
56518;BME280;42419;48.760;2.322;2023-02-11T10:46:02;103004.53;;;28.50;22.70
56518;BME280;42419;48.760;2.322;2023-02-11T10:53:38;103001.88;;;28.25;22.60
56518;BME280;42419;48.760;2.322;2023-02-11T10:56:05;103002.91;;;27.98;22.96
56518;BME280;42419;48.760;2.322;2023-02-11T10:58:43;102963.03;;;27.53;23.25
56518;BME280;42419;48.760;2.322;2023-02-11T11:01:10;103004.25;;;27.61;23.38
56518;BME280;42419;48.760;2.322;2023-02-11T11:03:46;103005.66;;;27.47;24.02
56518;BME280;42419;48.760;2.322;2023-02-11T11:06:12;103008.69;;;27.36;24.08
56518;BME280;42419;48.760;2.322;2023-02-11T11:08:44;102999.22;;;27.23;24.54
56518;BME280;42419;48.760;2.322;2023-02-11T11:11:21;102997.09;;;27.06;24.86
56518;BME280;42419;48.760;2.322;2023-02-11T11:21:40;103000.59;;;26.53;25.37
56518;BME280;42419;48.760;2.322;2023-02-11T11:24:21;102975.31;;;26.24;26.58
56518;BME280;42419;48.760;2.322;2023-02-11T11:26:52;102971.19;;;26.13;27.05
56518;BME280;42419;48.760;2.322;2023-02-11T11:29:28;102985.69;;;26.10;26.71
56518;BME280;42419;48.760;2.322;2023-02-11T11:31:58;102983.53;;;25.90;26.98
56518;BME280;42419;48.760;2.322;2023-02-11T11:34:30;102979.28;;;25.82;26.93
56518;BME280;42419;48.760;2.322;2023-02-11T11:36:58;102990.34;;;25.73;27.41
56518;BME280;42419;48.760;2.322;2023-02-11T11:39:30;102982.50;;;25.62;27.75
56518;BME280;42419;48.760;2.322;2023-02-11T11:42:02;102977.44;;;25.50;27.41
56518;BME280;42419;48.760;2.322;2023-02-11T11:44:30;102972.97;;;25.49;27.59
56518;BME280;42419;48.760;2.322;2023-02-11T11:49:44;102981.19;;;25.44;27.68
56518;BME280;42419;48.760;2.322;2023-02-11T11:55:02;102955.47;;;25.31;28.26
56518;BME280;42419;48.760;2.322;2023-02-11T11:57:30;102961.72;;;25.33;27.72
56518;BME280;42419;48.760;2.322;2023-02-11T11:59:59;102970.56;;;25.38;27.59
56518;BME280;42419;48.760;2.322;2023-02-11T12:02:56;102964.28;;;25.38;28.17
56518;BME280;42419;48.760;2.322;2023-02-11T12:05:26;102968.81;;;25.36;28.08
56518;BME280;42419;48.760;2.322;2023-02-11T12:13:55;102925.25;;;25.19;28.40
56518;BME280;42419;48.760;2.322;2023-02-11T12:16:35;102926.16;;;25.18;28.00
56518;BME280;42419;48.760;2.322;2023-02-11T12:26:50;102928.03;;;25.16;28.19
56518;BME280;42419;48.760;2.322;2023-02-11T12:32:12;102948.63;;;25.18;30.30
56518;BME280;42419;48.760;2.322;2023-02-11T12:37:54;102945.56;;;24.96;33.02
56518;BME280;42419;48.760;2.322;2023-02-11T12:40:29;102945.78;;;24.87;33.52
56518;BME280;42419;48.760;2.322;2023-02-11T12:46:01;102931.38;;;24.53;34.86
56518;BME280;42419;48.760;2.322;2023-02-11T12:51:23;102941.66;;;24.33;37.10
56518;BME280;42419;48.760;2.322;2023-02-11T12:54:31;102934.72;;;24.23;37.30
56518;BME280;42419;48.760;2.322;2023-02-11T12:59:43;102933.34;;;24.03;36.91
56518;BME280;42419;48.760;2.322;2023-02-11T13:02:20;102932.66;;;23.94;38.99
56518;BME280;42419;48.760;2.322;2023-02-11T13:04:59;102931.84;;;23.90;38.96
56518;BME280;42419;48.760;2.322;2023-02-11T13:07:36;102920.25;;;23.87;38.87
56518;BME280;42419;48.760;2.322;2023-02-11T13:12:42;102928.41;;;23.81;39.25
56518;BME280;42419;48.760;2.322;2023-02-11T13:15:28;102923.03;;;23.79;38.48
56518;BME280;42419;48.760;2.322;2023-02-11T13:18:12;102915.91;;;23.78;39.25
56518;BME280;42419;48.760;2.322;2023-02-11T13:20:55;102910.56;;;23.75;39.64
56518;BME280;42419;48.760;2.322;2023-02-11T13:23:34;102906.09;;;23.76;39.44
56518;BME280;42419;48.760;2.322;2023-02-11T13:26:18;102911.47;;;23.76;39.15
56518;BME280;42419;48.760;2.322;2023-02-11T13:29:23;102858.28;;;23.47;39.12
56518;BME280;42419;48.760;2.322;2023-02-11T13:32:12;102901.66;;;23.73;38.35
56518;BME280;42419;48.760;2.322;2023-02-11T13:37:25;102899.91;;;23.70;38.31
56518;BME280;42419;48.760;2.322;2023-02-11T13:40:06;102894.59;;;23.69;37.76
56518;BME280;42419;48.760;2.322;2023-02-11T13:42:49;102880.38;;;23.62;37.34
56518;BME280;42419;48.760;2.322;2023-02-11T13:48:25;102874.19;;;23.57;37.82
56518;BME280;42419;48.760;2.322;2023-02-11T13:50:56;102884.03;;;23.58;38.58
56518;BME280;42419;48.760;2.322;2023-02-11T13:53:23;102876.94;;;23.54;38.30
56518;BME280;42419;48.760;2.322;2023-02-11T13:55:51;102880.63;;;23.49;39.05
56518;BME280;42419;48.760;2.322;2023-02-11T13:58:33;102874.44;;;23.45;40.18
56518;BME280;42419;48.760;2.322;2023-02-11T14:01:01;102872.59;;;23.47;39.15
56518;BME280;42419;48.760;2.322;2023-02-11T14:03:35;102874.47;;;23.44;40.47
56518;BME280;42419;48.760;2.322;2023-02-11T14:06:23;102870.94;;;23.40;39.86
56518;BME280;42419;48.760;2.322;2023-02-11T14:12:23;102865.72;;;23.33;40.95
56518;BME280;42419;48.760;2.322;2023-02-11T14:15:16;102856.00;;;23.25;40.21
56518;BME280;42419;48.760;2.322;2023-02-11T14:17:42;102850.69;;;23.24;39.63
56518;BME280;42419;48.760;2.322;2023-02-11T14:20:34;102866.72;;;23.27;40.99
56518;BME280;42419;48.760;2.322;2023-02-11T14:23:00;102862.25;;;23.26;39.93
56518;BME280;42419;48.760;2.322;2023-02-11T14:25:26;102833.09;;;23.05;40.03
56518;BME280;42419;48.760;2.322;2023-02-11T14:27:54;102867.72;;;23.23;40.69
56518;BME280;42419;48.760;2.322;2023-02-11T14:30:46;102865.94;;;23.20;40.99
56518;BME280;42419;48.760;2.322;2023-02-11T14:33:58;102868.66;;;23.17;40.94
56518;BME280;42419;48.760;2.322;2023-02-11T14:37:02;102841.13;;;23.06;41.09
56518;BME280;42419;48.760;2.322;2023-02-11T14:42:19;102858.97;;;23.10;40.84
56518;BME280;42419;48.760;2.322;2023-02-11T14:44:48;102846.50;;;23.05;40.77
56518;BME280;42419;48.760;2.322;2023-02-11T14:47:18;102865.25;;;23.09;40.47
56518;BME280;42419;48.760;2.322;2023-02-11T14:49:45;102840.34;;;23.00;40.32
56518;BME280;42419;48.760;2.322;2023-02-11T14:52:27;102859.94;;;23.06;41.54